createdAt,value
2022-08-10T00:00:09.148Z,29.00
2022-08-10T00:02:39.590Z,29.00
2022-08-10T00:05:09.144Z,29.00
2022-08-10T00:07:38.151Z,29.00
2022-08-10T00:10:08.183Z,28.90
2022-08-10T00:12:54.250Z,28.90
2022-08-10T00:15:51.915Z,28.80
2022-08-10T00:18:34.389Z,28.80
2022-08-10T00:21:05.315Z,28.70
2022-08-10T00:23:34.657Z,28.70
2022-08-10T00:26:04.386Z,28.70
2022-08-10T00:28:35.762Z,28.50
2022-08-10T00:31:04.704Z,28.60
2022-08-10T00:33:35.023Z,28.70
2022-08-10T00:36:04.184Z,28.60
2022-08-10T00:38:34.902Z,28.60
2022-08-10T00:41:03.847Z,28.60
2022-08-10T00:43:32.834Z,28.60
2022-08-10T00:46:01.996Z,28.60
2022-08-10T00:48:31.877Z,28.60
2022-08-10T00:51:02.404Z,28.60
2022-08-10T00:53:31.768Z,28.60
2022-08-10T00:56:35.771Z,28.60
2022-08-10T00:58:50.377Z,28.60
2022-08-10T01:02:10.131Z,28.50
2022-08-10T01:04:36.687Z,28.50
2022-08-10T01:07:16.140Z,28.50
2022-08-10T01:09:57.321Z,28.40
2022-08-10T01:12:47.665Z,28.30
2022-08-10T01:15:23.847Z,28.30
2022-08-10T01:17:58.794Z,28.20
2022-08-10T01:20:36.083Z,28.20
2022-08-10T01:24:02.246Z,28.30
2022-08-10T01:26:51.165Z,28.30
2022-08-10T01:29:43.423Z,28.20
2022-08-10T01:32:15.368Z,28.20
2022-08-10T01:34:52.152Z,28.20
2022-08-10T01:37:25.647Z,28.20
2022-08-10T01:39:58.653Z,28.10
2022-08-10T01:42:30.965Z,28.10
2022-08-10T01:45:05.180Z,28.10
2022-08-10T01:48:04.505Z,28.10
2022-08-10T01:50:59.202Z,28.10
2022-08-10T01:53:40.092Z,28.00
2022-08-10T01:56:13.690Z,28.20
2022-08-10T01:58:43.829Z,28.30
2022-08-10T02:01:20.190Z,28.20
2022-08-10T02:04:04.090Z,28.00
2022-08-10T02:06:39.944Z,28.10
2022-08-10T02:09:10.555Z,28.20
2022-08-10T02:11:55.806Z,28.20
2022-08-10T02:14:34.566Z,28.30
2022-08-10T02:17:07.971Z,28.10
2022-08-10T02:19:39.902Z,28.20
2022-08-10T02:22:35.670Z,28.30
2022-08-10T02:25:03.436Z,28.30
2022-08-10T02:27:34.488Z,28.40
2022-08-10T02:30:05.613Z,28.40
2022-08-10T02:32:38.154Z,28.30
2022-08-10T02:35:21.911Z,28.30
2022-08-10T02:37:54.483Z,28.20
2022-08-10T02:45:12.912Z,28.10
2022-08-10T02:45:19.189Z,28.10
2022-08-10T02:46:21.894Z,28.20
2022-08-10T02:49:02.967Z,28.00
2022-08-10T02:52:06.290Z,28.00
2022-08-10T02:54:35.263Z,28.10
2022-08-10T02:57:10.896Z,28.10
2022-08-10T02:59:46.061Z,28.00
2022-08-10T03:02:21.397Z,28.00
2022-08-10T03:04:58.121Z,28.20
2022-08-10T03:07:43.173Z,28.10
2022-08-10T03:10:18.784Z,28.00
2022-08-10T03:12:51.508Z,28.00
2022-08-10T03:15:22.707Z,27.80
2022-08-10T03:17:57.390Z,27.90
2022-08-10T03:20:38.825Z,27.80
2022-08-10T03:23:13.543Z,27.90
2022-08-10T03:25:53.615Z,27.90
2022-08-10T03:28:24.905Z,27.80
2022-08-10T03:30:54.769Z,27.80
2022-08-10T03:33:26.045Z,27.90
2022-08-10T03:36:41.600Z,27.70
2022-08-10T03:39:05.875Z,27.70
2022-08-10T03:41:38.427Z,27.70
2022-08-10T03:44:09.421Z,27.60
2022-08-10T03:46:42.533Z,27.60
2022-08-10T03:49:13.291Z,27.60
2022-08-10T03:51:45.554Z,27.70
2022-08-10T03:54:14.714Z,27.70
2022-08-10T03:56:43.700Z,27.50
2022-08-10T03:59:14.612Z,27.60
2022-08-10T04:02:43.558Z,27.70
2022-08-10T04:04:33.416Z,27.50
2022-08-10T04:07:05.723Z,27.70
2022-08-10T04:09:55.496Z,27.70
2022-08-10T04:12:25.804Z,27.40
2022-08-10T04:14:54.905Z,27.60
2022-08-10T04:18:05.019Z,27.70
2022-08-10T04:20:20.630Z,27.70
2022-08-10T04:22:54.049Z,27.60
2022-08-10T04:25:25.809Z,27.60
2022-08-10T04:27:55.680Z,27.60
2022-08-10T04:30:27.915Z,27.50
2022-08-10T04:33:00.467Z,27.50
2022-08-10T04:35:31.263Z,27.50
2022-08-10T04:38:05.608Z,27.60
2022-08-10T04:40:34.978Z,27.50
2022-08-10T04:43:12.513Z,27.60
2022-08-10T04:45:50.193Z,27.70
2022-08-10T04:48:43.428Z,27.60
2022-08-10T04:51:17.627Z,27.60
2022-08-10T04:54:04.481Z,27.60
2022-08-10T04:56:37.742Z,27.50
2022-08-10T04:59:08.090Z,27.30
2022-08-10T05:02:29.770Z,27.10
2022-08-10T05:04:38.006Z,27.20
2022-08-10T05:07:16.867Z,27.40
2022-08-10T05:10:03.124Z,27.30
2022-08-10T05:12:36.458Z,27.20
2022-08-10T05:15:10.741Z,27.20
2022-08-10T05:17:40.606Z,27.20
2022-08-10T05:20:12.245Z,27.40
2022-08-10T05:22:43.167Z,27.40
2022-08-10T05:25:15.306Z,27.50
2022-08-10T05:27:45.171Z,27.50
2022-08-10T05:30:16.306Z,27.40
2022-08-10T05:32:57.245Z,27.30
2022-08-10T05:35:56.611Z,27.20
2022-08-10T05:38:19.836Z,27.20
2022-08-10T05:40:51.541Z,27.30
2022-08-10T05:43:22.427Z,27.40
2022-08-10T05:46:19.850Z,27.50
2022-08-10T05:48:56.661Z,27.60
2022-08-10T05:51:29.635Z,27.50
2022-08-10T05:54:04.677Z,27.50
2022-08-10T05:56:53.253Z,27.50
2022-08-10T06:00:34.839Z,27.60
2022-08-10T06:02:35.306Z,27.60
2022-08-10T06:05:10.501Z,27.70
2022-08-10T06:07:42.639Z,27.80
2022-08-10T06:10:31.136Z,27.90
2022-08-10T06:13:30.616Z,27.90
2022-08-10T06:16:14.030Z,28.10
2022-08-10T06:18:44.178Z,28.30
2022-08-10T06:21:14.630Z,28.50
2022-08-10T06:23:45.201Z,28.50
2022-08-10T06:26:17.397Z,28.40
2022-08-10T06:29:03.028Z,28.50
2022-08-10T06:31:47.465Z,28.50
2022-08-10T06:34:24.105Z,28.60
2022-08-10T06:36:55.469Z,28.90
2022-08-10T06:39:40.313Z,28.90
2022-08-10T06:42:18.037Z,29.00
2022-08-10T06:44:55.479Z,29.10
2022-08-10T06:47:27.959Z,29.00
2022-08-10T06:50:01.691Z,29.30
2022-08-10T06:52:35.464Z,29.40
2022-08-10T06:55:08.268Z,29.30
2022-08-10T06:57:40.184Z,29.30
2022-08-10T07:00:19.676Z,29.40
2022-08-10T07:02:54.090Z,29.40
2022-08-10T07:05:26.031Z,29.50
2022-08-10T07:07:59.234Z,29.50
2022-08-10T07:10:45.672Z,29.60
2022-08-10T07:14:16.952Z,29.80
2022-08-10T07:16:12.762Z,29.80
2022-08-10T07:18:44.476Z,29.90
2022-08-10T07:21:15.269Z,30.00
2022-08-10T07:23:58.185Z,30.10
2022-08-10T07:26:32.315Z,30.20
2022-08-10T07:29:03.612Z,30.30
2022-08-10T07:31:57.248Z,30.30
2022-08-10T07:34:29.822Z,30.30
2022-08-10T07:37:03.162Z,30.50
2022-08-10T07:39:58.192Z,30.60
2022-08-10T07:42:27.215Z,30.50
2022-08-10T07:44:56.490Z,30.60
2022-08-10T07:47:53.503Z,30.60
2022-08-10T07:50:24.599Z,30.70
2022-08-10T07:52:55.815Z,30.80
2022-08-10T07:56:05.642Z,30.90
2022-08-10T07:58:18.743Z,31.00
2022-08-10T08:00:49.737Z,31.20
2022-08-10T08:03:24.992Z,31.20
2022-08-10T08:06:02.343Z,31.10
2022-08-10T08:08:33.712Z,31.20
2022-08-10T08:11:04.419Z,31.20
2022-08-10T08:13:35.397Z,31.30
2022-08-10T08:16:21.237Z,31.40
2022-08-10T08:24:04.514Z,31.50
2022-08-10T08:24:37.479Z,31.50
2022-08-10T08:27:08.095Z,31.70
2022-08-10T08:29:40.613Z,31.90
2022-08-10T08:32:11.773Z,31.90
2022-08-10T08:34:44.909Z,32.00
2022-08-10T08:38:26.482Z,32.10
2022-08-10T08:40:12.098Z,32.20
2022-08-10T08:43:14.538Z,32.10
2022-08-10T08:46:07.301Z,32.30
2022-08-10T08:48:58.311Z,32.50
2022-08-10T08:52:09.814Z,32.50
2022-08-10T08:54:48.497Z,32.50
2022-08-10T08:57:50.525Z,32.50
2022-08-10T09:00:19.499Z,32.70
2022-08-10T09:03:22.934Z,32.80
2022-08-10T09:06:07.201Z,32.60
2022-08-10T09:09:23.324Z,32.80
2022-08-10T09:12:07.340Z,32.90
2022-08-10T09:14:42.318Z,33.10
2022-08-10T09:17:20.356Z,33.00
2022-08-10T09:19:55.488Z,32.80
2022-08-10T09:22:32.610Z,33.10
2022-08-10T09:25:19.079Z,33.10
2022-08-10T09:27:50.087Z,33.10
2022-08-10T09:30:26.019Z,33.20
2022-08-10T09:36:25.147Z,33.40
2022-08-10T09:36:26.374Z,33.20
2022-08-10T09:39:09.320Z,33.50
2022-08-10T09:41:56.304Z,33.30
2022-08-10T09:44:35.267Z,33.40
2022-08-10T09:48:01.487Z,33.20
2022-08-10T09:51:05.475Z,33.20
2022-08-10T09:53:36.412Z,33.30
2022-08-10T09:56:21.357Z,33.30
2022-08-10T09:59:59.331Z,33.40
2022-08-10T10:02:04.176Z,33.40
2022-08-10T10:04:42.322Z,33.30
2022-08-10T10:07:15.511Z,33.60
2022-08-10T10:09:53.746Z,33.80
2022-08-10T10:12:28.411Z,33.90
2022-08-10T10:15:25.019Z,34.00
2022-08-10T10:18:27.501Z,34.10
2022-08-10T10:21:04.278Z,34.00
2022-08-10T10:24:15.559Z,34.00
2022-08-10T10:26:45.852Z,34.00
2022-08-10T10:29:56.699Z,34.10
2022-08-10T10:32:25.929Z,34.30
2022-08-10T10:35:05.065Z,34.20
2022-08-10T10:38:10.165Z,34.10
2022-08-10T10:40:30.586Z,34.20
2022-08-10T10:43:09.213Z,34.10
2022-08-10T10:45:50.852Z,34.30
2022-08-10T10:48:30.027Z,34.60
2022-08-10T10:51:10.653Z,34.30
2022-08-10T10:53:49.044Z,34.50
2022-08-10T10:56:28.128Z,34.50
2022-08-10T10:59:33.446Z,34.60
2022-08-10T11:02:10.774Z,34.70
2022-08-10T11:04:48.457Z,34.50
2022-08-10T11:07:30.962Z,34.60
2022-08-10T11:10:31.730Z,34.80
2022-08-10T11:14:26.710Z,34.60
2022-08-10T11:16:03.247Z,34.60
2022-08-10T11:18:45.548Z,35.00
2022-08-10T11:21:24.705Z,34.80
2022-08-10T11:24:48.163Z,34.70
2022-08-10T11:26:59.254Z,34.60
2022-08-10T11:29:36.166Z,34.50
2022-08-10T11:32:10.148Z,34.80
2022-08-10T11:35:10.280Z,34.80
2022-08-10T11:38:34.316Z,35.20
2022-08-10T11:40:46.141Z,34.70
2022-08-10T11:43:22.303Z,34.60
2022-08-10T11:46:06.133Z,34.70
2022-08-10T11:48:53.493Z,34.60
2022-08-10T11:51:34.336Z,34.40
2022-08-10T11:54:11.961Z,34.80
2022-08-10T11:56:48.218Z,34.70
2022-08-10T11:59:37.767Z,34.90
2022-08-10T12:02:08.947Z,34.70
2022-08-10T12:04:41.780Z,34.80
2022-08-10T12:10:03.973Z,34.90
2022-08-10T12:10:13.624Z,34.90
2022-08-10T12:12:48.908Z,34.80
2022-08-10T12:15:23.710Z,34.60
2022-08-10T12:17:57.261Z,34.60
2022-08-10T12:20:31.437Z,34.80
2022-08-10T12:23:10.399Z,35.00
2022-08-10T12:25:55.854Z,34.80
2022-08-10T12:28:50.015Z,34.90
2022-08-10T12:31:26.700Z,34.90
2022-08-10T12:34:06.964Z,34.60
2022-08-10T12:36:42.750Z,34.30
2022-08-10T12:39:18.042Z,34.30
2022-08-10T12:41:54.750Z,34.70
2022-08-10T12:44:41.576Z,34.60
2022-08-10T12:47:21.995Z,34.50
2022-08-10T12:50:29.773Z,34.30
2022-08-10T12:53:04.841Z,34.60
2022-08-10T12:55:38.936Z,34.80
2022-08-10T12:58:57.086Z,34.70
2022-08-10T13:01:16.054Z,34.80
2022-08-10T13:04:21.766Z,34.70
2022-08-10T13:06:46.341Z,34.70
2022-08-10T13:09:21.968Z,34.80
2022-08-10T13:12:39.073Z,34.90
2022-08-10T13:14:54.734Z,34.90
2022-08-10T13:17:32.311Z,34.60
2022-08-10T13:20:17.478Z,34.80
2022-08-10T13:22:50.780Z,34.80
2022-08-10T13:25:27.365Z,34.70
2022-08-10T13:28:34.937Z,34.70
2022-08-10T13:30:52.554Z,34.70
2022-08-10T13:34:39.818Z,34.70
2022-08-10T13:36:22.085Z,35.00
2022-08-10T13:38:53.054Z,34.80
2022-08-10T13:41:22.633Z,34.70
2022-08-10T13:43:54.186Z,34.50
2022-08-10T13:46:24.706Z,34.50
2022-08-10T13:48:54.719Z,34.40
2022-08-10T13:51:54.137Z,34.70
2022-08-10T13:54:17.160Z,34.70
2022-08-10T13:56:50.255Z,35.20
2022-08-10T13:59:20.717Z,35.30
2022-08-10T14:01:53.665Z,36.00
2022-08-10T14:04:22.903Z,36.40
2022-08-10T14:06:55.372Z,35.60
2022-08-10T14:09:32.625Z,35.50
2022-08-10T14:12:03.029Z,35.30
2022-08-10T14:14:33.891Z,35.90
2022-08-10T14:17:05.765Z,35.80
2022-08-10T14:19:43.625Z,35.30
2022-08-10T14:22:19.744Z,35.60
2022-08-10T14:25:08.884Z,35.50
2022-08-10T14:27:40.190Z,35.50
2022-08-10T14:30:31.650Z,35.20
2022-08-10T14:33:07.841Z,35.70
2022-08-10T14:36:18.515Z,36.20
2022-08-10T14:38:36.473Z,36.50
2022-08-10T14:41:14.702Z,36.00
2022-08-10T14:44:07.319Z,35.60
2022-08-10T14:46:41.798Z,35.70
2022-08-10T14:49:25.662Z,36.10
2022-08-10T14:52:01.465Z,35.80
2022-08-10T14:54:33.639Z,35.60
2022-08-10T14:57:10.840Z,35.70
2022-08-10T15:00:22.745Z,35.80
2022-08-10T15:02:56.039Z,36.40
2022-08-10T15:05:36.010Z,35.70
2022-08-10T15:08:10.549Z,35.40
2022-08-10T15:10:40.887Z,35.60
2022-08-10T15:13:33.968Z,35.70
2022-08-10T15:16:13.507Z,35.10
2022-08-10T15:18:58.580Z,34.30
2022-08-10T15:21:42.612Z,34.10
2022-08-10T15:24:15.915Z,33.70
2022-08-10T15:26:57.620Z,33.70
2022-08-10T15:29:27.929Z,33.70
2022-08-10T15:32:14.516Z,33.70
2022-08-10T15:35:17.409Z,33.80
2022-08-10T15:37:51.134Z,33.70
2022-08-10T15:40:32.440Z,33.60
2022-08-10T15:43:24.378Z,33.50
2022-08-10T15:46:00.604Z,33.10
2022-08-10T15:48:33.934Z,33.10
2022-08-10T15:51:06.477Z,33.30
2022-08-10T15:53:49.173Z,33.30
2022-08-10T15:56:28.049Z,33.30
2022-08-10T15:59:08.379Z,33.50
2022-08-10T16:02:14.047Z,33.30
2022-08-10T16:04:34.495Z,33.20
2022-08-10T16:07:06.798Z,33.20
2022-08-10T16:10:22.539Z,33.10
2022-08-10T16:12:36.014Z,33.10
2022-08-10T16:15:08.976Z,32.90
2022-08-10T16:17:54.916Z,33.00
2022-08-10T16:20:31.360Z,32.90
2022-08-10T16:23:06.876Z,33.00
2022-08-10T16:25:48.285Z,33.10
2022-08-10T16:28:24.240Z,32.90
2022-08-10T16:30:56.629Z,32.90
2022-08-10T16:33:53.071Z,32.80
2022-08-10T16:36:20.927Z,32.70
2022-08-10T16:38:52.214Z,32.60
2022-08-10T16:42:04.155Z,32.60
2022-08-10T16:44:19.811Z,32.50
2022-08-10T16:46:49.815Z,32.60
2022-08-10T16:49:20.660Z,32.70
2022-08-10T16:51:51.769Z,32.50
2022-08-10T16:54:27.352Z,32.30
2022-08-10T16:57:03.950Z,32.30
2022-08-10T16:59:37.046Z,32.40
2022-08-10T17:02:07.644Z,32.30
2022-08-10T17:04:40.872Z,32.30
2022-08-10T17:07:14.881Z,32.20
2022-08-10T17:09:50.717Z,32.20
2022-08-10T17:12:26.970Z,32.10
2022-08-10T17:15:09.359Z,32.20
2022-08-10T17:17:42.605Z,32.20
2022-08-10T17:20:30.156Z,32.20
2022-08-10T17:23:04.952Z,32.40
2022-08-10T17:25:48.418Z,32.50
2022-08-10T17:28:33.047Z,32.30
2022-08-10T17:31:53.297Z,32.30
2022-08-10T17:34:03.853Z,32.30
2022-08-10T17:36:37.179Z,32.20
2022-08-10T17:39:09.946Z,32.00
2022-08-10T17:41:40.302Z,31.90
2022-08-10T17:44:11.826Z,31.90
2022-08-10T17:46:44.946Z,32.00
2022-08-10T17:49:16.123Z,31.90
2022-08-10T17:51:52.545Z,32.10
2022-08-10T17:54:28.026Z,32.20
2022-08-10T17:57:00.625Z,32.00
2022-08-10T17:59:33.570Z,31.90
2022-08-10T18:02:13.324Z,32.10
2022-08-10T18:04:50.156Z,32.10
2022-08-10T18:07:22.903Z,32.10
2022-08-10T18:09:58.985Z,32.10
2022-08-10T18:12:36.509Z,32.00
2022-08-10T18:15:13.601Z,31.90
2022-08-10T18:17:47.662Z,31.90
2022-08-10T18:20:20.059Z,31.90
2022-08-10T18:22:51.986Z,32.00
2022-08-10T18:25:24.613Z,32.00
2022-08-10T18:28:03.913Z,32.10
2022-08-10T18:30:46.084Z,32.30
2022-08-10T18:33:16.832Z,32.20
2022-08-10T18:35:47.541Z,32.00
2022-08-10T18:38:18.845Z,32.10
2022-08-10T18:40:54.677Z,31.90
2022-08-10T18:44:06.840Z,31.80
2022-08-10T18:46:24.812Z,31.70
2022-08-10T18:48:57.300Z,31.80
2022-08-10T18:51:32.011Z,31.70
2022-08-10T18:54:39.063Z,31.60
2022-08-10T18:57:01.116Z,31.70
2022-08-10T19:00:03.563Z,31.60
2022-08-10T19:03:11.690Z,31.70
2022-08-10T19:05:55.643Z,31.70
2022-08-10T19:08:49.318Z,31.40
2022-08-10T19:11:30.836Z,31.50
2022-08-10T19:14:05.555Z,31.40
2022-08-10T19:16:42.239Z,31.60
2022-08-10T19:19:34.772Z,31.70
2022-08-10T19:22:08.576Z,31.60
2022-08-10T19:24:51.806Z,31.60
2022-08-10T19:27:36.922Z,31.40
2022-08-10T19:30:13.241Z,31.30
2022-08-10T19:33:01.432Z,31.50
2022-08-10T19:36:03.358Z,31.50
2022-08-10T19:38:49.549Z,31.50
2022-08-10T19:41:32.544Z,31.20
2022-08-10T19:44:22.861Z,31.10
2022-08-10T19:46:58.335Z,30.90
2022-08-10T19:49:40.034Z,31.10
2022-08-10T19:52:19.906Z,31.20
2022-08-10T19:54:57.605Z,31.30
2022-08-10T19:57:35.163Z,31.20
2022-08-10T20:00:19.430Z,31.00
2022-08-10T20:03:00.351Z,31.10
2022-08-10T20:05:33.818Z,31.10
2022-08-10T20:08:19.139Z,30.90
2022-08-10T20:10:54.954Z,31.00
2022-08-10T20:13:30.798Z,31.10
2022-08-10T20:16:06.388Z,30.90
2022-08-10T20:18:39.515Z,31.00
2022-08-10T20:21:14.077Z,30.90
2022-08-10T20:23:55.625Z,30.90
2022-08-10T20:26:28.641Z,30.70
2022-08-10T20:29:07.828Z,30.60
2022-08-10T20:31:43.476Z,30.40
2022-08-10T20:34:20.907Z,30.40
2022-08-10T20:36:58.402Z,30.30
2022-08-10T20:39:49.961Z,30.40
2022-08-10T20:42:26.458Z,30.50
2022-08-10T20:45:04.832Z,30.40
2022-08-10T20:47:53.743Z,30.40
2022-08-10T20:50:35.603Z,30.20
2022-08-10T20:53:10.920Z,30.40
2022-08-10T20:56:11.791Z,30.40
2022-08-10T20:59:10.356Z,30.30
2022-08-10T21:02:06.485Z,30.30
2022-08-10T21:04:48.947Z,30.40
2022-08-10T21:08:05.737Z,30.20
2022-08-10T21:10:58.077Z,30.20
2022-08-10T21:13:45.364Z,30.30
2022-08-10T21:16:26.794Z,30.40
2022-08-10T21:19:24.309Z,30.40
2022-08-10T21:22:10.030Z,30.40
2022-08-10T21:24:52.175Z,30.30
2022-08-10T21:27:55.457Z,30.40
2022-08-10T21:30:38.324Z,30.30
2022-08-10T21:33:12.244Z,30.30
2022-08-10T21:35:45.109Z,30.30
2022-08-10T21:38:35.630Z,30.30
2022-08-10T21:41:58.327Z,30.30
2022-08-10T21:45:08.938Z,30.40
2022-08-10T21:48:17.725Z,30.30
2022-08-10T21:51:16.648Z,30.20
2022-08-10T21:54:21.827Z,30.10
2022-08-10T21:57:21.218Z,30.00
2022-08-10T22:03:23.576Z,30.00
2022-08-10T22:06:13.532Z,30.00
2022-08-10T22:09:04.013Z,30.00
2022-08-10T22:11:56.144Z,29.90
2022-08-10T22:14:45.828Z,29.90
2022-08-10T22:18:03.321Z,29.80
2022-08-10T22:20:46.441Z,29.70
2022-08-10T22:24:16.515Z,29.80
2022-08-10T22:27:46.457Z,29.90
2022-08-10T22:30:34.578Z,29.90
2022-08-10T22:33:42.673Z,29.90
2022-08-10T22:36:56.506Z,29.80
2022-08-10T22:40:11.355Z,29.80
2022-08-10T22:43:10.525Z,29.70
2022-08-10T22:46:05.387Z,29.70
2022-08-10T22:48:59.879Z,29.70
2022-08-10T22:51:55.653Z,29.80
2022-08-10T22:54:46.599Z,29.90
2022-08-10T22:57:34.317Z,30.00
2022-08-10T23:00:14.427Z,29.60
2022-08-10T23:02:51.716Z,29.60
2022-08-10T23:05:29.036Z,29.70
2022-08-10T23:08:04.280Z,29.80
2022-08-10T23:11:04.466Z,29.60
2022-08-10T23:13:38.133Z,29.50
2022-08-10T23:16:32.254Z,29.40
2022-08-10T23:19:11.414Z,29.40
2022-08-10T23:22:04.288Z,29.40
2022-08-10T23:24:37.928Z,29.40
2022-08-10T23:27:13.239Z,29.30
2022-08-10T23:30:09.239Z,29.30
2022-08-10T23:32:42.378Z,29.20
2022-08-10T23:36:05.571Z,29.20
2022-08-10T23:38:10.819Z,29.10
2022-08-10T23:40:46.600Z,29.10
2022-08-10T23:43:53.341Z,29.10
2022-08-10T23:46:23.878Z,29.00
2022-08-10T23:48:55.897Z,29.00
2022-08-10T23:51:38.772Z,28.90
2022-08-10T23:54:23.347Z,28.90
2022-08-10T23:57:01.157Z,28.90
2022-08-10T23:59:33.591Z,28.90
